createdAt,value
2022-11-05T00:01:31.281Z,100799.56
2022-11-05T00:04:51.739Z,100808.31
2022-11-05T00:08:13.358Z,100811.88
2022-11-05T00:11:18.318Z,100818.19
2022-11-05T00:14:38.581Z,100823.31
2022-11-05T00:17:41.605Z,100828.84
2022-11-05T00:20:44.198Z,100823.53
2022-11-05T00:24:05.713Z,100828.84
2022-11-05T00:27:08.770Z,100831.06
2022-11-05T00:30:13.162Z,100832.63
2022-11-05T00:33:15.843Z,100837.75
2022-11-05T00:36:18.391Z,100834.38
2022-11-05T00:39:22.327Z,100838.88
2022-11-05T00:42:42.332Z,100840.50
2022-11-05T00:45:44.905Z,100841.22
2022-11-05T00:49:05.167Z,100850.38
2022-11-05T00:52:21.642Z,100848.66
2022-11-05T00:55:28.202Z,100845.47
2022-11-05T00:58:30.772Z,100854.00
2022-11-05T01:01:33.436Z,100855.63
2022-11-05T01:04:36.028Z,100855.03
2022-11-05T01:07:38.634Z,100853.25
2022-11-05T01:10:43.647Z,100867.78
2022-11-05T01:13:46.205Z,100861.75
2022-11-05T01:16:48.770Z,100874.84
2022-11-05T01:19:51.905Z,100867.47
2022-11-05T01:22:54.463Z,100862.34
2022-11-05T01:25:59.676Z,100871.28
2022-11-05T01:29:02.303Z,100863.84
2022-11-05T01:32:05.293Z,100867.41
2022-11-05T01:35:11.221Z,100868.50
2022-11-05T01:38:13.799Z,100865.34
2022-11-05T01:41:17.701Z,100863.31
2022-11-05T01:44:54.163Z,100865.25
2022-11-05T01:48:02.489Z,100871.28
2022-11-05T01:51:08.006Z,100874.09
2022-11-05T01:54:14.988Z,100868.78
2022-11-05T01:57:18.968Z,100875.53
2022-11-05T02:00:21.713Z,100873.75
2022-11-05T02:03:25.334Z,100876.25
2022-11-05T02:06:31.110Z,100881.78
2022-11-05T02:09:40.244Z,100880.41
2022-11-05T02:12:47.173Z,100887.63
2022-11-05T02:16:00.556Z,100886.00
2022-11-05T02:19:37.118Z,100879.47
2022-11-05T02:23:05.909Z,100878.50
2022-11-05T02:26:36.935Z,100881.50
2022-11-05T02:30:06.778Z,100883.97
2022-11-05T02:33:28.261Z,100876.63
2022-11-05T02:36:40.881Z,100889.84
2022-11-05T02:39:53.866Z,100888.78
2022-11-05T02:43:04.067Z,100886.34
2022-11-05T02:46:16.553Z,100883.00
2022-11-05T02:49:35.520Z,100887.84
2022-11-05T02:52:44.333Z,100884.75
2022-11-05T02:55:54.424Z,100886.47
2022-11-05T02:58:57.003Z,100881.19
2022-11-05T03:02:01.772Z,100883.13
2022-11-05T03:05:06.727Z,100879.53
2022-11-05T03:08:20.142Z,100878.00
2022-11-05T03:11:25.100Z,100886.72
2022-11-05T03:14:37.193Z,100877.97
2022-11-05T03:17:52.042Z,100883.34
2022-11-05T03:21:03.861Z,100893.25
2022-11-05T03:24:13.578Z,100895.91
2022-11-05T03:27:22.393Z,100896.00
2022-11-05T03:30:25.763Z,100905.91
2022-11-05T03:33:31.037Z,100912.97
2022-11-05T03:36:39.579Z,100918.44
2022-11-05T03:39:46.907Z,100920.97
2022-11-05T03:42:55.062Z,100923.72
2022-11-05T03:46:01.876Z,100924.19
2022-11-05T03:49:07.264Z,100930.31
2022-11-05T03:52:17.331Z,100927.47
2022-11-05T03:55:21.147Z,100934.63
2022-11-05T03:58:24.580Z,100934.47
2022-11-05T04:01:28.377Z,100936.13
2022-11-05T04:04:31.031Z,100925.56
2022-11-05T04:07:52.468Z,100929.47
2022-11-05T04:11:12.904Z,100935.03
2022-11-05T04:14:15.470Z,100935.03
2022-11-05T04:17:18.004Z,100934.53
2022-11-05T04:20:38.563Z,100932.97
2022-11-05T04:24:00.443Z,100937.25
2022-11-05T04:27:02.986Z,100936.41
2022-11-05T04:30:22.713Z,100940.72
2022-11-05T04:33:25.254Z,100941.41
2022-11-05T04:36:27.972Z,100939.72
2022-11-05T04:39:31.898Z,100949.31
2022-11-05T04:42:34.453Z,100952.56
2022-11-05T04:45:37.126Z,100953.47
2022-11-05T04:48:39.703Z,100953.00
2022-11-05T04:51:42.247Z,100968.09
2022-11-05T04:54:46.163Z,100966.50
2022-11-05T04:57:49.723Z,100962.19
2022-11-05T05:00:52.338Z,100966.06
2022-11-05T05:03:55.297Z,100963.44
2022-11-05T05:06:57.904Z,100973.88
2022-11-05T05:10:02.155Z,100974.03
2022-11-05T05:13:04.713Z,100969.75
2022-11-05T05:16:08.457Z,100969.13
2022-11-05T05:19:11.025Z,100973.78
2022-11-05T05:22:12.635Z,100973.41
2022-11-05T05:25:16.731Z,100975.19
2022-11-05T05:28:19.270Z,100979.28
2022-11-05T05:31:22.359Z,100981.03
2022-11-05T05:34:24.914Z,100988.13
2022-11-05T05:37:27.453Z,100991.44
2022-11-05T05:40:31.440Z,100990.88
2022-11-05T05:43:34.886Z,100989.94
2022-11-05T05:46:37.461Z,100994.25
2022-11-05T05:49:40.187Z,100996.75
2022-11-05T05:52:42.757Z,101003.00
2022-11-05T05:55:46.656Z,101002.91
2022-11-05T05:58:49.230Z,101007.81
2022-11-05T06:01:51.854Z,101014.91
2022-11-05T06:04:54.514Z,101013.00
2022-11-05T06:07:57.412Z,101013.00
2022-11-05T06:11:01.761Z,101019.19
2022-11-05T06:14:04.447Z,101014.75
2022-11-05T06:17:08.152Z,101019.53
2022-11-05T06:20:11.686Z,101026.28
2022-11-05T06:23:15.317Z,101031.47
2022-11-05T06:26:20.013Z,101029.75
2022-11-05T06:29:22.626Z,101030.63
2022-11-05T06:32:25.347Z,101044.53
2022-11-05T06:35:27.876Z,101043.75
2022-11-05T06:38:33.365Z,101041.16
2022-11-05T06:41:56.925Z,101045.28
2022-11-05T06:44:59.878Z,101048.94
2022-11-05T06:48:02.535Z,101048.75
2022-11-05T06:51:05.939Z,101053.28
2022-11-05T06:54:09.287Z,101050.88
2022-11-05T06:57:13.796Z,101058.03
2022-11-05T07:00:17.344Z,101059.78
2022-11-05T07:03:19.901Z,101065.28
2022-11-05T07:06:22.436Z,101070.16
2022-11-05T07:09:24.951Z,101065.81
2022-11-05T07:12:28.868Z,101076.13
2022-11-05T07:15:31.575Z,101076.78
2022-11-05T07:18:34.119Z,101082.31
2022-11-05T07:21:36.697Z,101081.72
2022-11-05T07:24:39.219Z,101095.06
2022-11-05T07:27:43.660Z,101098.41
2022-11-05T07:30:46.350Z,101103.63
2022-11-05T07:33:48.897Z,101097.13
2022-11-05T07:36:51.435Z,101100.16
2022-11-05T07:39:53.985Z,101100.88
2022-11-05T07:42:59.321Z,101098.75
2022-11-05T07:46:01.870Z,101103.13
2022-11-05T07:49:04.850Z,101108.56
2022-11-05T07:52:07.420Z,101107.63
2022-11-05T07:55:11.105Z,101104.38
2022-11-05T07:58:15.101Z,101102.41
2022-11-05T08:01:17.964Z,101108.53
2022-11-05T08:04:20.938Z,101102.75
2022-11-05T08:07:23.513Z,101107.31
2022-11-05T08:10:26.973Z,101107.78
2022-11-05T08:13:30.884Z,101108.06
2022-11-05T08:16:33.429Z,101114.19
2022-11-05T08:19:35.994Z,101115.22
2022-11-05T08:22:38.647Z,101105.63
2022-11-05T08:25:41.241Z,101105.16
2022-11-05T08:28:45.164Z,101117.41
2022-11-05T08:31:47.722Z,101125.97
2022-11-05T08:34:50.261Z,101119.34
2022-11-05T08:37:57.324Z,101123.53
2022-11-05T08:41:00.412Z,101133.56
2022-11-05T08:44:04.455Z,101130.41
2022-11-05T08:47:07.152Z,101124.41
2022-11-05T08:50:10.728Z,101126.56
2022-11-05T08:53:14.199Z,101133.44
2022-11-05T08:56:16.952Z,101129.97
2022-11-05T08:59:20.878Z,101135.47
2022-11-05T09:02:23.561Z,101137.63
2022-11-05T09:05:26.248Z,101136.75
2022-11-05T09:08:28.895Z,101142.88
2022-11-05T09:11:56.949Z,101133.63
2022-11-05T09:14:55.387Z,101138.53
2022-11-05T09:17:58.284Z,101140.44
2022-11-05T09:21:00.809Z,101132.09
2022-11-05T09:24:03.364Z,101138.59
2022-11-05T09:27:05.914Z,101140.03
2022-11-05T09:30:12.118Z,101138.59
2022-11-05T09:33:15.560Z,101140.69
2022-11-05T09:36:18.121Z,101150.28
2022-11-05T09:39:20.703Z,101151.78
2022-11-05T09:42:27.693Z,101157.75
2022-11-05T09:45:35.476Z,101149.78
2022-11-05T09:48:40.526Z,101161.44
2022-11-05T09:51:43.208Z,101162.59
2022-11-05T09:54:48.577Z,101160.97
2022-11-05T09:57:55.706Z,101166.75
2022-11-05T10:01:00.040Z,101165.50
2022-11-05T10:04:08.322Z,101171.69
2022-11-05T10:07:16.702Z,101178.34
2022-11-05T10:10:29.528Z,101181.59
2022-11-05T10:13:37.449Z,101178.22
2022-11-05T10:16:44.753Z,101187.69
2022-11-05T10:19:51.758Z,101181.19
2022-11-05T10:22:57.821Z,101179.72
2022-11-05T10:26:03.561Z,101186.94
2022-11-05T10:29:06.396Z,101186.22
2022-11-05T10:32:14.419Z,101192.47
2022-11-05T10:35:22.462Z,101188.25
2022-11-05T10:38:25.377Z,101178.72
2022-11-05T10:41:37.748Z,101189.38
2022-11-05T10:44:47.559Z,101188.41
2022-11-05T10:48:05.026Z,101188.56
2022-11-05T10:51:08.598Z,101181.81
2022-11-05T10:54:16.817Z,101181.13
2022-11-05T10:57:32.635Z,101182.50
2022-11-05T11:00:35.448Z,101186.50
2022-11-05T11:03:45.461Z,101179.91
2022-11-05T11:06:51.615Z,101182.94
2022-11-05T11:09:54.905Z,101191.19
2022-11-05T11:12:58.433Z,101180.59
2022-11-05T11:16:15.848Z,101180.44
2022-11-05T11:19:28.761Z,101189.06
2022-11-05T11:22:31.343Z,101190.25
2022-11-05T11:25:40.528Z,101180.50
2022-11-05T11:28:48.326Z,101186.22
2022-11-05T11:31:55.924Z,101182.13
2022-11-05T11:35:01.096Z,101185.38
2022-11-05T11:38:03.701Z,101179.94
2022-11-05T11:41:20.944Z,101185.66
2022-11-05T11:44:29.452Z,101185.16
2022-11-05T11:47:33.441Z,101186.28
2022-11-05T11:50:40.999Z,101181.53
2022-11-05T11:53:43.571Z,101187.44
2022-11-05T11:56:47.879Z,101184.69
2022-11-05T12:03:25.253Z,101190.63
2022-11-05T12:06:36.925Z,101184.25
2022-11-05T12:09:56.300Z,101190.88
2022-11-05T12:13:22.466Z,101186.06
2022-11-05T12:16:39.883Z,101191.06
2022-11-05T12:19:59.267Z,101185.97
2022-11-05T12:23:30.711Z,101188.22
2022-11-05T12:26:44.421Z,101184.84
2022-11-05T12:29:58.725Z,101181.16
2022-11-05T12:33:21.312Z,101181.38
2022-11-05T12:36:38.128Z,101183.81
2022-11-05T12:40:02.235Z,101182.88
2022-11-05T12:43:12.071Z,101181.56
2022-11-05T12:46:27.435Z,101175.25
2022-11-05T12:49:53.007Z,101180.66
2022-11-05T12:53:14.841Z,101173.84
2022-11-05T12:56:34.245Z,101173.19
2022-11-05T12:59:41.068Z,101177.34
2022-11-05T13:02:50.571Z,101169.41
2022-11-05T13:05:59.061Z,101168.03
2022-11-05T13:09:08.051Z,101173.13
2022-11-05T13:12:15.994Z,101163.56
2022-11-05T13:15:26.728Z,101164.16
2022-11-05T13:18:35.930Z,101169.00
2022-11-05T13:21:40.295Z,101170.88
2022-11-05T13:24:49.132Z,101174.97
2022-11-05T13:27:59.153Z,101176.81
2022-11-05T13:31:05.320Z,101174.28
2022-11-05T13:34:11.902Z,101170.66
2022-11-05T13:37:37.929Z,101172.25
2022-11-05T13:40:51.315Z,101172.50
2022-11-05T13:44:20.356Z,101167.72
2022-11-05T13:47:42.048Z,101168.88
2022-11-05T13:51:01.365Z,101170.81
2022-11-05T13:54:30.277Z,101173.66
2022-11-05T13:57:49.765Z,101174.72
2022-11-05T14:01:08.328Z,101177.13
2022-11-05T14:04:20.745Z,101171.91
2022-11-05T14:07:28.498Z,101173.66
2022-11-05T14:10:36.968Z,101164.44
2022-11-05T14:13:43.447Z,101173.63
2022-11-05T14:16:53.022Z,101170.94
2022-11-05T14:20:24.157Z,101178.34
2022-11-05T14:23:50.824Z,101179.66
2022-11-05T14:27:30.909Z,101181.44
2022-11-05T14:30:42.232Z,101179.84
2022-11-05T14:33:56.444Z,101170.69
2022-11-05T14:37:22.146Z,101174.06
2022-11-05T14:40:33.504Z,101180.94
2022-11-05T14:43:36.220Z,101184.38
2022-11-05T14:46:44.324Z,101188.50
2022-11-05T15:45:43.254Z,101201.81
2022-11-05T15:48:49.635Z,101207.63
2022-11-05T15:51:52.132Z,101209.34
2022-11-05T15:55:09.855Z,101206.91
2022-11-05T15:58:17.440Z,101207.06
2022-11-05T16:01:27.981Z,101219.75
2022-11-05T16:04:32.502Z,101214.22
2022-11-05T16:07:35.017Z,101213.09
2022-11-05T16:10:39.701Z,101209.19
2022-11-05T16:13:42.998Z,101212.38
2022-11-05T16:16:47.358Z,101209.44
2022-11-05T16:19:51.071Z,101208.44
2022-11-05T16:22:55.483Z,101203.28
2022-11-05T16:25:58.010Z,101200.81
2022-11-05T16:29:03.705Z,101207.88
2022-11-05T16:32:16.620Z,101204.66
2022-11-05T16:35:21.479Z,101201.50
2022-11-05T16:38:24.507Z,101204.47
2022-11-05T16:41:28.084Z,101209.63
2022-11-05T16:44:30.594Z,101216.06
2022-11-05T16:47:34.564Z,101214.88
2022-11-05T16:50:37.583Z,101216.97
2022-11-05T16:53:40.114Z,101219.03
2022-11-05T16:56:43.786Z,101222.97
2022-11-05T16:59:46.327Z,101220.84
2022-11-05T17:02:50.332Z,101225.78
2022-11-05T17:05:53.044Z,101231.09
2022-11-05T17:08:55.532Z,101237.53
2022-11-05T17:12:00.591Z,101233.38
2022-11-05T17:15:03.453Z,101228.13
2022-11-05T17:18:07.374Z,101235.84
2022-11-05T17:21:12.689Z,101237.84
2022-11-05T17:24:15.193Z,101235.63
2022-11-05T17:27:17.690Z,101237.75
2022-11-05T17:30:20.230Z,101238.34
2022-11-05T17:33:24.402Z,101246.75
2022-11-05T17:36:27.673Z,101240.19
2022-11-05T17:39:31.856Z,101252.31
2022-11-05T17:42:34.556Z,101247.75
2022-11-05T17:45:42.643Z,101245.22
2022-11-05T17:48:47.028Z,101252.28
2022-11-05T17:51:49.510Z,101266.56
2022-11-05T17:54:51.991Z,101259.88
2022-11-05T17:57:54.532Z,101265.41
2022-11-05T18:00:57.191Z,101253.75
2022-11-05T18:04:07.298Z,101253.44
2022-11-05T18:07:11.323Z,101255.69
2022-11-05T18:10:14.418Z,101253.25
2022-11-05T18:13:16.905Z,101261.19
2022-11-05T18:16:19.498Z,101258.50
2022-11-05T18:19:23.323Z,101263.75
2022-11-05T18:22:26.606Z,101251.28
2022-11-05T18:25:29.176Z,101247.28
2022-11-05T18:28:32.692Z,101239.06
2022-11-05T18:31:35.240Z,101247.75
2022-11-05T18:34:39.128Z,101241.00
2022-11-05T18:37:41.872Z,101246.50
2022-11-05T18:40:44.360Z,101247.56
2022-11-05T18:43:47.372Z,101252.31
2022-11-05T18:46:58.880Z,101248.16
2022-11-05T18:50:03.194Z,101252.22
2022-11-05T18:53:05.680Z,101256.25
2022-11-05T18:56:08.828Z,101251.94
2022-11-05T18:59:35.187Z,101243.34
2022-11-05T19:02:34.234Z,101232.53
2022-11-05T19:05:38.365Z,101233.00
2022-11-05T19:08:40.885Z,101231.94
2022-11-05T19:11:43.430Z,101227.75
2022-11-05T19:14:45.939Z,101226.00
2022-11-05T19:17:48.428Z,101220.63
2022-11-05T19:20:52.262Z,101233.22
2022-11-05T19:23:56.697Z,101230.50
2022-11-05T19:26:59.270Z,101226.84
2022-11-05T19:30:01.787Z,101238.97
2022-11-05T19:33:04.412Z,101237.63
2022-11-05T19:36:09.930Z,101241.88
2022-11-05T19:39:14.709Z,101243.13
2022-11-05T19:42:17.253Z,101241.69
2022-11-05T19:48:42.732Z,101246.53
2022-11-05T19:51:46.720Z,101242.78
2022-11-05T19:54:49.238Z,101239.09
2022-11-05T19:57:51.805Z,101247.28
2022-11-05T20:00:56.796Z,101246.69
2022-11-05T20:04:02.315Z,101250.88
2022-11-05T20:07:06.390Z,101248.28
2022-11-05T20:10:09.775Z,101254.31
2022-11-05T20:13:16.996Z,101254.09
2022-11-05T20:16:24.834Z,101251.25
2022-11-05T20:19:27.329Z,101247.38
2022-11-05T20:22:31.167Z,101241.19
2022-11-05T20:25:33.671Z,101250.56
2022-11-05T20:28:37.156Z,101258.69
2022-11-05T20:31:39.998Z,101242.53
2022-11-05T20:34:42.509Z,101247.94
2022-11-05T20:37:49.782Z,101240.03
2022-11-05T20:40:56.184Z,101237.50
2022-11-05T20:43:58.863Z,101241.41
2022-11-05T20:47:01.359Z,101244.94
2022-11-05T20:50:04.589Z,101229.19
2022-11-05T20:53:08.494Z,101234.16
2022-11-05T20:56:17.456Z,101229.19
2022-11-05T20:59:20.404Z,101241.72
2022-11-05T21:02:23.055Z,101246.72
2022-11-05T21:05:25.604Z,101244.56
2022-11-05T21:08:29.683Z,101249.00
2022-11-05T21:11:56.000Z,101248.44
2022-11-05T21:14:58.556Z,101245.44
2022-11-05T21:18:01.405Z,101244.66
2022-11-05T21:21:06.405Z,101251.72
2022-11-05T21:24:10.479Z,101249.13
2022-11-05T21:27:12.984Z,101261.34
2022-11-05T21:30:15.468Z,101254.94
2022-11-05T21:33:19.473Z,101242.94
2022-11-05T21:36:22.080Z,101254.41
2022-11-05T21:39:26.045Z,101251.38
2022-11-05T21:42:30.461Z,101247.88
2022-11-05T21:45:32.944Z,101245.81
2022-11-05T21:48:35.485Z,101244.22
2022-11-05T21:52:07.280Z,101235.03
2022-11-05T21:55:34.455Z,101227.25
2022-11-05T21:58:54.555Z,101219.63
2022-11-05T22:02:01.497Z,101218.66
2022-11-05T22:05:05.577Z,101220.31
2022-11-05T22:08:08.136Z,101221.09
2022-11-05T22:11:12.002Z,101215.66
2022-11-05T22:14:14.489Z,101217.56
2022-11-05T22:17:17.775Z,101210.22
2022-11-05T22:20:20.368Z,101206.94
2022-11-05T22:23:22.883Z,101201.69
2022-11-05T22:26:26.731Z,101201.75
2022-11-05T22:29:29.693Z,101204.03
2022-11-05T22:32:32.179Z,101207.22
2022-11-05T22:35:34.688Z,101202.19
2022-11-05T22:38:37.324Z,101208.56
2022-11-05T22:41:41.889Z,101203.00
2022-11-05T22:44:44.420Z,101193.91
2022-11-05T22:47:46.907Z,101207.16
2022-11-05T22:50:49.630Z,101205.63
2022-11-05T22:53:52.571Z,101197.41
2022-11-05T22:56:56.408Z,101202.47
2022-11-05T22:59:58.916Z,101197.03
2022-11-05T23:03:02.645Z,101195.97
2022-11-05T23:06:28.007Z,101191.00
2022-11-05T23:09:50.059Z,101201.38
2022-11-05T23:12:55.665Z,101191.13
2022-11-05T23:16:15.657Z,101192.31
2022-11-05T23:19:36.083Z,101193.56
2022-11-05T23:22:56.411Z,101178.25
2022-11-05T23:25:59.120Z,101183.78
2022-11-05T23:29:03.008Z,101173.44
2022-11-05T23:32:23.285Z,101177.19
2022-11-05T23:35:40.142Z,101168.66
2022-11-05T23:38:42.691Z,101170.50
2022-11-05T23:42:02.668Z,101162.22
2022-11-05T23:45:25.741Z,101169.66
2022-11-05T23:48:32.537Z,101174.47
2022-11-05T23:51:35.028Z,101171.38
2022-11-05T23:54:37.513Z,101164.28
2022-11-05T23:57:40.769Z,101166.09
